Time;durP1;ratioP1;P1;durP2;ratioP2;P2;SDS_P1;SDS_P2;PMS_P1;PMS_P2;Temp;Humidity;BMP_temperature;BMP_pressure;BME280_temperature;BME280_humidity;BME280_pressure;Samples;Min_cycle;Max_cycle;Signal;HPM_P1;HPM_P2
2023/09/13 00:01:50;;;;;;;11.63;2.67;;;18.30;99.90;;;;;;5100504;28;20044;-58
2023/09/13 00:04:16;;;;;;;10.15;3.08;;;18.30;99.90;;;;;;5100397;28;20040;-58
2023/09/13 00:06:42;;;;;;;9.30;2.25;;;18.20;99.90;;;;;;5099615;28;20450;-58
2023/09/13 00:09:08;;;;;;;8.88;2.03;;;18.30;99.90;;;;;;5100575;28;20333;-58
2023/09/13 00:11:35;;;;;;;8.65;2.03;;;18.20;99.90;;;;;;5099051;28;20508;-58
2023/09/13 00:14:01;;;;;;;8.32;2.13;;;18.20;99.90;;;;;;5100676;28;20078;-58
2023/09/13 00:16:27;;;;;;;7.50;2.08;;;18.30;99.90;;;;;;5099087;28;20092;-58
2023/09/13 00:18:53;;;;;;;9.43;1.60;;;18.20;99.90;;;;;;5100031;28;20075;-57
2023/09/13 00:21:20;;;;;;;10.57;2.25;;;18.10;99.90;;;;;;5099971;28;20032;-58
2023/09/13 00:23:46;;;;;;;8.38;1.90;;;18.20;99.90;;;;;;5099106;28;20067;-58
2023/09/13 00:26:14;;;;;;;7.07;2.05;;;18.20;99.90;;;;;;5100294;28;20130;-57
2023/09/13 00:28:39;;;;;;;10.23;1.92;;;18.20;99.90;;;;;;5098680;28;20051;-58
2023/09/13 00:31:09;;;;;;;6.13;1.75;;;18.10;99.90;;;;;;5100237;28;20040;-56
2023/09/13 00:33:34;;;;;;;8.43;1.83;;;18.10;99.90;;;;;;5099220;28;20056;-58
2023/09/13 00:36:00;;;;;;;8.68;1.65;;;18.10;99.40;;;;;;5100249;28;20119;-58
2023/09/13 00:38:26;;;;;;;9.15;2.03;;;18.10;98.90;;;;;;5099709;28;20039;-58
2023/09/13 00:40:52;;;;;;;7.80;2.67;;;18.20;97.40;;;;;;5099290;28;20036;-57
2023/09/13 00:43:17;;;;;;;5.68;1.42;;;18.20;95.90;;;;;;5098650;28;20048;-57
2023/09/13 00:45:46;;;;;;;8.85;2.20;;;18.20;94.40;;;;;;5098692;28;20100;-58
2023/09/13 00:48:12;;;;;;;7.80;2.00;;;18.20;93.60;;;;;;5098613;28;20119;-57
2023/09/13 00:50:38;;;;;;;9.60;1.90;;;18.10;92.10;;;;;;5097139;28;20044;-61
2023/09/13 00:53:04;;;;;;;8.10;2.10;;;18.10;92.20;;;;;;5099911;28;20136;-57
2023/09/13 00:55:31;;;;;;;5.65;1.50;;;18.20;90.50;;;;;;5099440;28;20096;-58
2023/09/13 00:57:57;;;;;;;10.02;2.10;;;18.10;89.70;;;;;;5098272;28;20067;-58
2023/09/13 01:00:26;;;;;;;9.07;2.47;;;18.10;88.40;;;;;;5099746;28;20048;-57
2023/09/13 01:02:53;;;;;;;8.73;1.60;;;18.10;89.60;;;;;;5098430;28;20059;-58
2023/09/13 01:05:19;;;;;;;9.70;1.52;;;18.10;89.50;;;;;;5099871;28;20075;-58
2023/09/13 01:07:47;;;;;;;7.18;1.75;;;18.10;85.80;;;;;;5097387;28;20040;-57
2023/09/13 01:10:13;;;;;;;7.80;2.00;;;18.10;91.50;;;;;;5100002;28;20040;-59
2023/09/13 01:12:38;;;;;;;7.38;1.80;;;18.10;91.40;;;;;;5099059;28;20040;-60
2023/09/13 01:15:08;;;;;;;9.75;2.13;;;18.10;91.40;;;;;;5098825;28;20451;-58
2023/09/13 01:17:58;;;;;;;9.27;2.03;;;18.10;91.90;;;;;;5099543;28;20420;-58
2023/09/13 01:20:41;;;;;;;8.48;1.85;;;18.10;93.50;;;;;;5098172;28;20070;-57
2023/09/13 01:23:38;;;;;;;12.13;2.35;;;18.10;92.30;;;;;;5099441;28;20101;-58
2023/09/13 01:26:28;;;;;;;7.28;1.98;;;18.10;94.10;;;;;;5099345;28;20040;-58
2023/09/13 01:28:55;;;;;;;8.38;2.05;;;18.00;93.50;;;;;;5098251;28;20048;-57
2023/09/13 01:31:21;;;;;;;10.18;1.95;;;18.10;95.40;;;;;;5099514;28;20044;-58
2023/09/13 01:33:47;;;;;;;6.13;1.63;;;18.10;94.80;;;;;;5098564;28;20091;-58
2023/09/13 01:36:14;;;;;;;9.00;2.25;;;18.00;93.30;;;;;;5098900;28;20036;-58
2023/09/13 01:38:40;;;;;;;6.80;1.70;;;18.00;91.90;;;;;;5098976;28;20070;-59
2023/09/13 01:41:20;;;;;;;7.47;1.40;;;18.10;87.30;;;;;;5098228;28;20036;-59
2023/09/13 01:43:50;;;;;;;6.60;1.50;;;18.00;79.90;;;;;;5097857;28;20063;-58
2023/09/13 01:46:16;;;;;;;9.65;1.60;;;18.00;83.10;;;;;;5096957;28;20036;-57
2023/09/13 01:48:42;;;;;;;4.72;1.35;;;18.00;83.20;;;;;;5099000;28;20075;-58
2023/09/13 01:51:08;;;;;;;7.63;1.90;;;18.00;80.20;;;;;;5097270;28;20548;-58
2023/09/13 01:53:45;;;;;;;8.60;1.60;;;18.00;79.50;;;;;;5097902;28;20056;-58
2023/09/13 01:56:11;;;;;;;7.20;1.67;;;17.90;76.50;;;;;;5118536;28;20050;-57
2023/09/13 01:58:37;;;;;;;8.95;1.60;;;18.00;76.40;;;;;;5117947;28;20126;-58
2023/09/13 02:01:02;;;;;;;8.18;1.80;;;17.90;78.00;;;;;;5119832;28;20067;-58
2023/09/13 02:03:28;;;;;;;6.13;1.65;;;17.90;77.50;;;;;;5121583;28;20126;-56
2023/09/13 02:05:54;;;;;;;5.70;2.00;;;17.90;81.00;;;;;;5123647;28;20047;-58
2023/09/13 02:08:20;;;;;;;8.55;2.10;;;17.90;82.80;;;;;;5106313;28;20067;-58
2023/09/13 02:10:48;;;;;;;6.88;2.10;;;17.90;84.00;;;;;;5102039;28;20047;-58
2023/09/13 02:13:14;;;;;;;9.35;2.25;;;17.80;84.30;;;;;;5102677;28;20043;-58
2023/09/13 02:15:40;;;;;;;5.65;2.10;;;17.90;87.10;;;;;;5101526;28;20079;-58
2023/09/13 02:18:06;;;;;;;8.10;2.40;;;17.90;89.90;;;;;;5101392;28;20094;-58
2023/09/13 02:20:32;;;;;;;6.40;2.03;;;17.90;87.70;;;;;;5101022;28;20052;-58
2023/09/13 02:22:58;;;;;;;6.20;1.88;;;17.90;87.60;;;;;;5102881;28;20109;-58
2023/09/13 02:25:23;;;;;;;5.68;1.85;;;17.80;89.50;;;;;;5102001;28;20040;-58
2023/09/13 02:27:49;;;;;;;6.35;1.90;;;17.80;90.30;;;;;;5101556;28;20048;-58
2023/09/13 02:30:15;;;;;;;8.13;2.03;;;17.80;92.50;;;;;;5102332;28;20421;-57
2023/09/13 02:32:41;;;;;;;7.63;1.98;;;17.80;92.80;;;;;;5101268;28;20044;-58
2023/09/13 02:35:08;;;;;;;7.47;2.00;;;17.70;93.80;;;;;;5102102;28;20085;-57
2023/09/13 02:37:34;;;;;;;6.50;2.60;;;17.70;95.20;;;;;;5101073;28;20051;-58
2023/09/13 02:39:59;;;;;;;5.28;1.70;;;17.70;94.60;;;;;;5102352;28;20044;-57
2023/09/13 02:42:27;;;;;;;6.03;1.52;;;17.60;93.50;;;;;;5101434;28;20040;-57
2023/09/13 02:44:53;;;;;;;8.60;2.45;;;17.70;94.20;;;;;;5101740;28;20056;-56
2023/09/13 02:47:19;;;;;;;5.75;1.48;;;17.70;93.50;;;;;;5102181;28;20036;-58
2023/09/13 02:49:44;;;;;;;8.27;1.55;;;17.70;94.80;;;;;;5100880;28;20727;-58
2023/09/13 02:52:10;;;;;;;7.32;1.55;;;17.70;93.00;;;;;;5102037;28;20048;-58
2023/09/13 02:54:36;;;;;;;7.07;1.40;;;17.60;93.20;;;;;;5106845;28;20399;-58
2023/09/13 02:57:01;;;;;;;6.25;2.17;;;17.70;94.10;;;;;;5122773;28;20159;-58
2023/09/13 02:59:27;;;;;;;6.95;1.77;;;17.60;93.90;;;;;;5121647;28;20035;-58
2023/09/13 03:01:53;;;;;;;7.20;1.52;;;17.60;94.70;;;;;;5121786;28;20104;-57
2023/09/13 03:04:19;;;;;;;6.63;1.40;;;17.60;94.20;;;;;;5122021;28;20043;-57
2023/09/13 03:06:45;;;;;;;7.63;1.70;;;17.60;95.00;;;;;;5121340;28;20038;-57
2023/09/13 03:09:10;;;;;;;7.32;1.80;;;17.60;95.80;;;;;;5122083;28;20056;-57
2023/09/13 03:11:36;;;;;;;6.95;1.58;;;17.60;95.70;;;;;;5120903;28;20108;-58
2023/09/13 03:14:03;;;;;;;9.07;1.60;;;17.60;95.70;;;;;;5118569;28;20048;-58
2023/09/13 03:16:28;;;;;;;7.72;1.60;;;17.60;96.20;;;;;;5100802;28;20036;-57
2023/09/13 03:18:55;;;;;;;5.35;1.60;;;17.60;94.80;;;;;;5100735;28;20077;-56
2023/09/13 03:21:20;;;;;;;8.25;1.90;;;17.50;96.20;;;;;;5100752;28;20048;-58
2023/09/13 03:23:51;;;;;;;5.68;1.83;;;17.60;96.70;;;;;;5099852;28;20518;-57
2023/09/13 03:26:22;;;;;;;10.52;2.25;;;17.60;95.70;;;;;;5101362;28;20040;-57
2023/09/13 03:28:49;;;;;;;9.20;1.70;;;17.60;94.90;;;;;;5099812;28;20040;-57
2023/09/13 03:31:17;;;;;;;8.48;2.10;;;17.50;94.80;;;;;;5101367;28;20048;-57
2023/09/13 03:33:44;;;;;;;6.45;1.45;;;17.50;94.00;;;;;;5100617;28;20050;-57
2023/09/13 03:36:11;;;;;;;10.00;1.50;;;17.50;93.60;;;;;;5100833;28;20059;-58
2023/09/13 03:38:38;;;;;;;6.95;1.77;;;17.40;92.80;;;;;;5100806;28;20157;-58
2023/09/13 03:41:12;;;;;;;7.30;1.75;;;17.30;92.60;;;;;;5099969;28;20063;-58
2023/09/13 03:43:38;;;;;;;8.20;1.40;;;17.20;91.30;;;;;;5101399;28;20048;-58
2023/09/13 03:46:05;;;;;;;7.00;1.50;;;17.20;90.80;;;;;;5098340;28;20050;-58
2023/09/13 03:48:32;;;;;;;5.60;1.70;;;16.90;87.70;;;;;;5101205;28;20073;-57
2023/09/13 03:50:58;;;;;;;9.57;1.63;;;17.00;91.70;;;;;;5100052;28;20488;-57
2023/09/13 03:53:24;;;;;;;6.88;1.30;;;16.90;93.80;;;;;;5100209;28;20119;-59
2023/09/13 03:55:53;;;;;;;6.78;1.55;;;16.90;98.00;;;;;;5117221;28;20063;-61
2023/09/13 03:58:20;;;;;;;7.65;1.55;;;16.70;99.80;;;;;;5119852;28;20048;-64
2023/09/13 04:00:45;;;;;;;7.65;1.58;;;16.50;99.90;;;;;;5121159;28;20044;-64
2023/09/13 04:03:12;;;;;;;6.90;1.65;;;16.40;99.90;;;;;;5119884;28;20100;-66
2023/09/13 04:05:38;;;;;;;9.77;1.95;;;16.40;99.90;;;;;;5120943;28;20069;-65
2023/09/13 04:08:04;;;;;;;7.55;1.90;;;16.30;99.90;;;;;;5120266;28;20095;-65
2023/09/13 04:10:29;;;;;;;10.50;1.80;;;16.20;99.90;;;;;;5120354;28;20039;-65
2023/09/13 04:12:55;;;;;;;8.40;1.88;;;16.10;99.90;;;;;;5120795;28;20036;-65
2023/09/13 04:15:21;;;;;;;8.63;1.83;;;16.10;99.90;;;;;;5119563;28;20036;-65
2023/09/13 04:17:47;;;;;;;10.27;1.67;;;16.00;99.90;;;;;;5120794;28;20080;-66
2023/09/13 04:20:13;;;;;;;8.40;2.25;;;15.90;99.90;;;;;;5119210;28;20042;-65
2023/09/13 04:22:38;;;;;;;11.13;2.40;;;15.90;99.90;;;;;;5120972;28;20039;-65
2023/09/13 04:25:05;;;;;;;8.48;2.35;;;15.90;99.90;;;;;;5118973;28;20062;-64
2023/09/13 04:27:31;;;;;;;9.73;2.00;;;15.90;99.90;;;;;;5119835;28;20503;-65
2023/09/13 04:29:56;;;;;;;7.60;1.92;;;15.90;99.90;;;;;;5120134;28;20046;-66
2023/09/13 04:32:24;;;;;;;8.90;1.90;;;15.80;99.90;;;;;;5119463;28;20047;-66
2023/09/13 04:34:50;;;;;;;9.27;2.60;;;15.70;99.90;;;;;;5120054;28;20104;-65
2023/09/13 04:37:16;;;;;;;8.35;2.00;;;15.70;99.90;;;;;;5119052;28;20103;-66
2023/09/13 04:39:42;;;;;;;7.05;2.78;;;15.60;99.90;;;;;;5120356;28;20039;-68
2023/09/13 04:42:08;;;;;;;10.95;2.60;;;15.60;99.90;;;;;;5119108;28;20050;-66
2023/09/13 04:44:33;;;;;;;8.57;2.03;;;15.50;99.90;;;;;;5120029;28;20103;-65
2023/09/13 04:46:59;;;;;;;11.38;2.45;;;15.50;99.90;;;;;;5119835;28;20072;-66
2023/09/13 04:49:25;;;;;;;8.07;2.35;;;15.60;99.90;;;;;;5118893;28;20340;-67
2023/09/13 04:51:52;;;;;;;9.50;1.95;;;15.60;99.90;;;;;;5119941;28;20055;-66
2023/09/13 04:54:22;;;;;;;10.48;2.38;;;15.60;99.90;;;;;;5115419;28;20059;-71
2023/09/13 04:56:51;;;;;;;10.50;2.00;;;15.50;99.90;;;;;;5098719;28;20047;-79
2023/09/13 04:59:17;;;;;;;8.07;1.98;;;15.50;99.90;;;;;;5098751;28;20043;-76
2023/09/13 05:01:42;;;;;;;10.15;2.20;;;15.40;99.90;;;;;;5098988;28;20032;-74
2023/09/13 05:04:09;;;;;;;9.27;2.85;;;15.40;99.90;;;;;;5099354;28;20051;-69
2023/09/13 05:06:34;;;;;;;7.57;2.15;;;15.30;99.90;;;;;;5098423;28;20254;-66
2023/09/13 05:09:00;;;;;;;9.38;2.70;;;15.30;99.90;;;;;;5099776;28;20039;-67
2023/09/13 05:11:26;;;;;;;8.05;1.90;;;15.20;99.90;;;;;;5098321;28;20070;-67
2023/09/13 05:14:08;;;;;;;6.55;1.95;;;15.30;99.90;;;;;;5099854;28;20131;-71
2023/09/13 05:16:34;;;;;;;10.48;2.00;;;15.10;99.90;;;;;;5098449;28;20048;-67
2023/09/13 05:18:59;;;;;;;10.23;2.13;;;15.10;99.90;;;;;;5098653;28;20182;-66
2023/09/13 05:21:25;;;;;;;9.45;2.25;;;15.10;99.90;;;;;;5098780;28;20051;-68
2023/09/13 05:23:51;;;;;;;8.70;2.33;;;15.00;99.90;;;;;;5096884;28;20056;-68
2023/09/13 05:26:16;;;;;;;10.15;2.47;;;15.10;99.90;;;;;;5099170;28;20044;-68
2023/09/13 05:28:42;;;;;;;13.55;2.70;;;15.00;99.90;;;;;;5096860;28;20661;-68
2023/09/13 05:31:08;;;;;;;10.65;2.28;;;15.10;99.90;;;;;;5099799;28;20052;-68
2023/09/13 05:33:34;;;;;;;10.98;2.00;;;15.20;99.90;;;;;;5098273;28;20036;-68
2023/09/13 05:36:00;;;;;;;9.30;2.33;;;15.10;99.90;;;;;;5099110;28;20040;-69
2023/09/13 05:38:25;;;;;;;15.93;3.45;;;15.20;99.90;;;;;;5100737;28;20046;-68
2023/09/13 05:40:51;;;;;;;13.63;2.55;;;15.10;99.90;;;;;;5100922;28;20079;-68
2023/09/13 05:43:17;;;;;;;13.23;2.42;;;15.10;99.90;;;;;;5103229;28;20067;-66
2023/09/13 05:45:43;;;;;;;6.72;2.10;;;15.10;99.90;;;;;;5101989;28;20043;-67
2023/09/13 05:48:08;;;;;;;16.42;2.90;;;15.00;99.90;;;;;;5103381;28;20138;-68
2023/09/13 05:50:34;;;;;;;11.15;3.03;;;15.00;99.90;;;;;;5100489;28;20051;-69
2023/09/13 05:53:00;;;;;;;12.23;2.72;;;15.00;99.90;;;;;;5101658;28;20063;-68
2023/09/13 05:55:25;;;;;;;10.52;2.65;;;14.90;99.90;;;;;;5115586;28;20055;-66
2023/09/13 05:57:51;;;;;;;11.32;2.88;;;14.90;99.90;;;;;;5122464;28;20043;-65
2023/09/13 06:00:17;;;;;;;16.33;2.50;;;15.00;99.90;;;;;;5123264;28;20132;-64
2023/09/13 06:02:43;;;;;;;16.67;3.42;;;14.90;99.90;;;;;;5121950;28;20063;-63
2023/09/13 06:05:11;;;;;;;13.35;2.72;;;14.90;99.90;;;;;;5123394;28;20043;-63
2023/09/13 06:07:37;;;;;;;12.48;2.78;;;14.90;99.90;;;;;;5122084;28;20046;-63
2023/09/13 06:10:04;;;;;;;10.13;3.10;;;14.90;99.90;;;;;;5123006;28;20035;-62
2023/09/13 06:12:33;;;;;;;15.75;3.35;;;14.90;99.90;;;;;;5121155;28;20051;-62
2023/09/13 06:14:59;;;;;;;10.95;2.67;;;14.90;99.90;;;;;;5117718;28;20055;-64
2023/09/13 06:17:25;;;;;;;12.50;2.88;;;14.80;99.90;;;;;;5118988;28;20065;-65
2023/09/13 06:19:51;;;;;;;11.30;2.80;;;14.90;99.90;;;;;;5117100;28;20076;-65
2023/09/13 06:22:17;;;;;;;14.27;3.67;;;14.90;99.90;;;;;;5118644;28;20043;-64
2023/09/13 06:24:44;;;;;;;17.00;3.15;;;14.90;99.90;;;;;;5117714;27;20356;-63
2023/09/13 06:27:10;;;;;;;10.73;2.83;;;14.90;99.90;;;;;;5118124;27;20046;-61
2023/09/13 06:29:36;;;;;;;9.65;2.90;;;14.90;99.90;;;;;;5118145;28;20043;-60
2023/09/13 06:32:06;;;;;;;10.43;2.78;;;14.90;99.90;;;;;;5118154;28;20067;-60
2023/09/13 06:34:32;;;;;;;12.35;2.78;;;15.00;99.90;;;;;;5118899;28;20043;-59
2023/09/13 06:36:58;;;;;;;11.32;2.80;;;15.00;99.90;;;;;;5117643;28;20052;-58
2023/09/13 06:39:24;;;;;;;9.65;2.78;;;15.00;99.90;;;;;;5118394;28;20044;-59
2023/09/13 06:41:50;;;;;;;10.60;2.70;;;15.00;99.90;;;;;;5117511;28;20043;-59
2023/09/13 06:44:16;;;;;;;12.13;2.50;;;15.10;99.90;;;;;;5118886;28;20035;-57
2023/09/13 06:46:42;;;;;;;10.98;2.42;;;15.00;99.90;;;;;;5118104;28;20048;-58
2023/09/13 06:49:08;;;;;;;8.95;2.38;;;15.10;99.90;;;;;;5115984;28;20044;-58
2023/09/13 06:51:33;;;;;;;8.90;2.35;;;15.00;99.90;;;;;;5116799;28;20603;-55
2023/09/13 06:53:59;;;;;;;8.52;3.15;;;15.10;99.90;;;;;;5115943;28;20044;-58
2023/09/13 06:56:25;;;;;;;8.40;1.88;;;15.20;99.90;;;;;;5097929;28;20119;-58
2023/09/13 06:58:53;;;;;;;8.73;2.30;;;15.20;99.90;;;;;;5096463;28;20063;-58
2023/09/13 07:01:19;;;;;;;8.40;2.03;;;15.20;99.90;;;;;;5107686;28;20471;-58
2023/09/13 07:03:45;;;;;;;10.32;2.03;;;15.20;99.90;;;;;;5117701;28;20071;-58
2023/09/13 07:06:11;;;;;;;11.77;2.30;;;15.20;99.90;;;;;;5117526;28;20039;-58
2023/09/13 07:08:37;;;;;;;8.45;2.10;;;15.20;99.90;;;;;;5110548;28;20048;-57
2023/09/13 07:11:03;;;;;;;12.13;2.33;;;15.20;99.90;;;;;;5115682;28;20044;-58
2023/09/13 07:13:29;;;;;;;13.13;2.03;;;15.20;99.90;;;;;;5117754;28;20067;-57
2023/09/13 07:15:54;;;;;;;10.88;2.00;;;15.20;99.90;;;;;;5116877;28;20035;-58
2023/09/13 07:18:20;;;;;;;9.52;2.00;;;15.30;99.90;;;;;;5118030;28;20044;-58
2023/09/13 07:20:46;;;;;;;8.88;2.53;;;15.20;99.90;;;;;;5117192;28;20046;-58
2023/09/13 07:23:11;;;;;;;9.10;1.90;;;15.20;99.90;;;;;;5117733;28;20483;-58
2023/09/13 07:25:37;;;;;;;9.07;2.08;;;15.20;99.90;;;;;;5117298;28;20487;-58
2023/09/13 07:28:03;;;;;;;8.23;1.85;;;15.20;99.90;;;;;;5116797;28;20512;-58
2023/09/13 07:30:28;;;;;;;6.38;2.03;;;15.20;99.90;;;;;;5118070;28;20035;-58
2023/09/13 07:32:54;;;;;;;9.57;1.90;;;15.10;99.90;;;;;;5116485;28;20089;-60
2023/09/13 07:35:20;;;;;;;8.50;1.90;;;15.20;99.90;;;;;;5118127;28;20046;-61
2023/09/13 07:37:47;;;;;;;8.32;2.25;;;15.20;99.90;;;;;;5114878;28;20473;-60
2023/09/13 07:40:12;;;;;;;8.93;2.00;;;15.30;99.90;;;;;;5109421;28;20050;-59
2023/09/13 07:42:38;;;;;;;9.50;1.90;;;15.30;99.90;;;;;;5105720;28;20044;-59
2023/09/13 07:45:05;;;;;;;7.13;2.10;;;15.30;99.90;;;;;;5104473;28;20048;-59
2023/09/13 07:47:31;;;;;;;8.10;1.98;;;15.30;99.90;;;;;;5105230;28;20052;-59
2023/09/13 07:50:00;;;;;;;7.82;2.25;;;15.40;99.90;;;;;;5104145;28;20047;-58
2023/09/13 07:52:26;;;;;;;12.40;2.03;;;15.50;99.90;;;;;;5096895;28;20052;-58
2023/09/13 07:54:52;;;;;;;11.10;1.95;;;15.40;99.90;;;;;;5104141;28;20051;-58
2023/09/13 07:57:18;;;;;;;11.35;1.95;;;15.40;99.90;;;;;;5116915;28;20073;-58
2023/09/13 07:59:44;;;;;;;10.98;1.98;;;15.50;99.90;;;;;;5116666;28;20040;-58
2023/09/13 08:02:09;;;;;;;7.55;1.85;;;15.50;99.90;;;;;;5116018;28;20035;-57
2023/09/13 08:04:35;;;;;;;10.18;2.33;;;15.60;99.90;;;;;;5116798;28;20031;-57
2023/09/13 08:07:02;;;;;;;11.02;2.50;;;15.60;99.90;;;;;;5115879;28;20054;-58
2023/09/13 08:09:27;;;;;;;9.43;2.30;;;15.70;99.90;;;;;;5116928;28;20035;-58
2023/09/13 08:11:53;;;;;;;9.02;1.90;;;15.70;99.90;;;;;;5115348;28;20049;-58
2023/09/13 08:14:19;;;;;;;7.97;2.45;;;15.80;99.90;;;;;;5116306;28;20523;-57
2023/09/13 08:16:45;;;;;;;9.52;2.17;;;15.80;99.90;;;;;;5115096;28;20035;-57
2023/09/13 08:19:11;;;;;;;11.35;2.40;;;15.80;99.90;;;;;;5115605;28;20043;-58
2023/09/13 08:21:38;;;;;;;9.38;2.13;;;15.80;99.90;;;;;;5115404;28;20491;-58
2023/09/13 08:24:04;;;;;;;8.15;2.08;;;15.90;99.90;;;;;;5115278;28;20043;-57
2023/09/13 08:26:30;;;;;;;11.95;1.92;;;15.90;99.90;;;;;;5100824;28;20169;-57
2023/09/13 08:28:57;;;;;;;9.23;1.70;;;15.90;99.90;;;;;;5092832;28;20043;-57
2023/09/13 08:31:26;;;;;;;7.40;1.92;;;16.00;99.90;;;;;;5096593;28;20057;-58
2023/09/13 08:33:53;;;;;;;10.48;1.80;;;16.00;99.90;;;;;;5095727;28;20075;-57
2023/09/13 08:36:18;;;;;;;12.70;1.90;;;16.00;99.90;;;;;;5097683;28;20103;-58
2023/09/13 08:38:44;;;;;;;7.03;1.67;;;16.00;99.90;;;;;;5112298;28;20063;-57
2023/09/13 08:41:11;;;;;;;6.30;1.65;;;16.00;99.90;;;;;;5115253;28;20051;-57
2023/09/13 08:43:38;;;;;;;9.25;2.20;;;16.00;99.90;;;;;;5116277;28;20051;-57
2023/09/13 08:46:06;;;;;;;8.23;1.60;;;16.00;99.90;;;;;;5115355;28;20051;-57
2023/09/13 08:48:33;;;;;;;7.28;2.03;;;15.90;99.90;;;;;;5116222;28;20071;-59
2023/09/13 08:51:02;;;;;;;9.88;1.80;;;15.90;99.90;;;;;;5115246;28;20472;-59
2023/09/13 08:53:29;;;;;;;10.27;2.22;;;15.80;99.90;;;;;;5115123;28;20127;-60
2023/09/13 08:55:55;;;;;;;12.38;2.42;;;15.80;99.90;;;;;;5098831;28;20133;-59
2023/09/13 08:58:21;;;;;;;9.82;2.13;;;15.80;99.90;;;;;;5095723;28;20642;-59
2023/09/13 09:00:49;;;;;;;13.32;3.22;;;15.80;99.90;;;;;;5116560;28;20086;-59
2023/09/13 09:03:17;;;;;;;10.82;2.60;;;15.80;99.90;;;;;;5114840;28;20051;-58
2023/09/13 09:05:45;;;;;;;9.18;2.40;;;15.70;99.90;;;;;;5078488;28;20104;-58
2023/09/13 09:08:11;;;;;;;10.32;2.25;;;15.80;99.90;;;;;;5073615;28;20057;-58
2023/09/13 09:10:37;;;;;;;10.48;2.28;;;15.80;99.90;;;;;;5074440;28;20052;-58
2023/09/13 09:13:05;;;;;;;13.35;3.10;;;15.80;99.90;;;;;;5075038;28;20118;-58
2023/09/13 09:15:33;;;;;;;10.50;2.83;;;15.90;99.90;;;;;;5074060;28;20064;-58
2023/09/13 09:18:01;;;;;;;11.15;2.35;;;15.90;99.90;;;;;;5075363;28;20391;-58
2023/09/13 09:20:28;;;;;;;9.60;2.50;;;15.80;98.70;;;;;;5073971;28;20045;-58
2023/09/13 09:22:57;;;;;;;7.78;2.78;;;15.80;97.20;;;;;;5092236;28;20581;-58
2023/09/13 09:25:24;;;;;;;8.63;2.33;;;15.80;91.00;;;;;;5097427;28;20154;-58
2023/09/13 09:27:50;;;;;;;10.73;2.80;;;15.80;90.90;;;;;;5097839;28;20055;-59
2023/09/13 09:30:15;;;;;;;10.40;2.75;;;15.90;83.40;;;;;;5099293;28;20040;-58
2023/09/13 09:32:43;;;;;;;7.47;2.75;;;15.90;76.30;;;;;;5098348;28;20071;-58
2023/09/13 09:35:09;;;;;;;8.30;3.00;;;16.10;74.80;;;;;;5099358;28;20557;-58
2023/09/13 09:37:35;;;;;;;8.73;2.53;;;16.20;81.20;;;;;;5098588;28;20097;-59
2023/09/13 09:40:02;;;;;;;9.23;2.35;;;16.20;60.50;;;;;;5099150;28;20509;-58
2023/09/13 09:42:29;;;;;;;8.98;2.63;;;16.20;54.00;;;;;;5099006;28;20036;-58
2023/09/13 09:44:55;;;;;;;8.63;2.45;;;16.30;50.50;;;;;;5096488;28;20052;-59
2023/09/13 09:47:21;;;;;;;9.85;2.60;;;16.30;39.80;;;;;;5098762;28;20043;-57
2023/09/13 09:49:47;;;;;;;10.73;2.83;;;16.40;47.60;;;;;;5097770;28;20044;-58
2023/09/13 09:52:15;;;;;;;8.90;2.67;;;16.50;39.50;;;;;;5096656;28;20052;-58
2023/09/13 09:54:47;;;;;;;6.00;2.05;;;16.60;21.70;;;;;;5095058;28;20043;-58
2023/09/13 09:57:18;;;;;;;;;;;16.70;21.60;;;;;;5098634;28;20046;-58
2023/09/13 09:59:45;;;;;;;6.80;2.38;;;16.70;17.40;;;;;;5098456;28;19927;-58
2023/09/13 10:02:11;;;;;;;7.72;2.47;;;16.80;29.10;;;;;;5098072;28;20058;-57
2023/09/13 10:04:51;;;;;;;9.05;3.03;;;16.90;28.90;;;;;;5098794;28;20175;-57
2023/09/13 10:07:17;;;;;;;8.30;2.53;;;16.90;13.90;;;;;;5097623;28;20051;-57
2023/09/13 10:09:44;;;;;;;6.50;2.22;;;17.00;18.40;;;;;;5099004;28;20044;-57
2023/09/13 10:12:11;;;;;;;7.65;2.67;;;17.00;5.80;;;;;;5097584;28;20177;-57
2023/09/13 10:14:39;;;;;;;8.13;2.53;;;17.10;15.60;;;;;;5098300;28;20043;-59
2023/09/13 10:17:06;;;;;;;9.07;2.67;;;17.30;20.30;;;;;;5098951;28;20095;-59
2023/09/13 10:19:33;;;;;;;7.57;2.38;;;17.40;15.50;;;;;;5097712;28;20099;-60
2023/09/13 10:22:00;;;;;;;9.38;2.80;;;17.50;11.20;;;;;;5099118;28;20039;-59
2023/09/13 10:24:43;;;;;;;7.72;2.63;;;17.50;6.50;;;;;;5098950;28;20044;-59
2023/09/13 10:27:11;;;;;;;7.18;2.45;;;17.60;8.00;;;;;;5102309;28;20052;-60
2023/09/13 10:29:55;;;;;;;7.85;2.60;;;17.70;3.20;;;;;;5102224;28;20051;-59
2023/09/13 10:32:25;;;;;;;7.82;2.15;;;17.90;7.60;;;;;;5100967;28;20050;-59
2023/09/13 10:34:58;;;;;;;7.57;2.33;;;18.00;3.70;;;;;;5102422;28;20080;-59
2023/09/13 10:37:42;;;;;;;7.72;2.20;;;18.00;3.60;;;;;;5108915;28;20052;-59
2023/09/13 10:40:17;;;;;;;9.05;2.70;;;18.00;1.00;;;;;;5111475;28;20048;-57
2023/09/13 10:42:43;;;;;;;7.57;2.65;;;18.00;1.00;;;;;;5101063;28;20044;-57
2023/09/13 10:45:14;;;;;;;7.28;2.35;;;18.00;1.00;;;;;;5100923;28;20047;-57
2023/09/13 10:47:41;;;;;;;5.78;1.90;;;17.90;1.00;;;;;;5102174;28;20032;-59
2023/09/13 10:50:10;;;;;;;6.65;2.20;;;18.20;1.00;;;;;;5100621;28;20047;-60
2023/09/13 10:52:36;;;;;;;7.68;2.55;;;18.30;1.00;;;;;;5102037;28;20139;-58
2023/09/13 10:55:06;;;;;;;5.82;1.88;;;18.30;1.00;;;;;;5111059;28;20096;-59
2023/09/13 10:57:34;;;;;;;6.75;1.77;;;18.20;1.00;;;;;;5121706;28;20046;-58
2023/09/13 10:59:59;;;;;;;5.25;1.40;;;18.10;1.00;;;;;;5122049;28;20031;-58
2023/09/13 11:02:26;;;;;;;7.35;2.10;;;18.50;1.00;;;;;;5111899;27;20062;-58
2023/09/13 11:04:52;;;;;;;9.38;2.20;;;18.40;1.00;;;;;;5101908;28;20032;-59
2023/09/13 11:07:18;;;;;;;6.43;2.15;;;18.30;1.00;;;;;;5100555;28;20052;-58
2023/09/13 11:09:45;;;;;;;5.65;2.25;;;18.00;1.00;;;;;;5101784;28;20036;-58
2023/09/13 11:12:14;;;;;;;6.78;1.75;;;18.30;1.00;;;;;;5100973;28;20095;-57
2023/09/13 11:14:47;;;;;;;6.07;1.70;;;18.50;1.00;;;;;;5101084;28;20044;-59
2023/09/13 11:17:38;;;;;;;6.80;1.65;;;18.50;1.00;;;;;;5101395;28;20121;-58
2023/09/13 11:20:24;;;;;;;8.93;1.83;;;18.60;1.00;;;;;;5100210;28;20043;-58
2023/09/13 11:23:10;;;;;;;7.38;1.95;;;18.50;1.00;;;;;;5101715;28;20081;-58
2023/09/13 11:25:40;;;;;;;8.50;2.15;;;18.60;1.00;;;;;;5101179;28;20048;-57
2023/09/13 11:28:09;;;;;;;9.60;2.15;;;18.60;1.00;;;;;;5100268;28;20055;-58
2023/09/13 11:30:50;;;;;;;7.85;1.45;;;18.40;1.00;;;;;;5109542;28;20036;-58
2023/09/13 11:33:16;;;;;;;6.60;1.60;;;18.40;1.00;;;;;;5110675;28;20496;-58
2023/09/13 11:35:46;;;;;;;10.65;2.17;;;18.20;1.00;;;;;;5109433;28;20032;-58
2023/09/13 11:38:12;;;;;;;7.10;2.08;;;18.20;1.00;;;;;;5121245;28;20465;-58
2023/09/13 11:40:45;;;;;;;6.00;1.83;;;18.00;1.00;;;;;;5120438;28;20052;-58
2023/09/13 11:43:11;;;;;;;7.28;1.48;;;17.90;1.00;;;;;;5121438;28;20051;-58
2023/09/13 11:45:39;;;;;;;6.35;1.25;;;17.80;1.00;;;;;;5120374;28;20031;-58
2023/09/13 11:48:07;;;;;;;6.35;1.52;;;17.80;1.00;;;;;;5121428;28;20051;-58
2023/09/13 11:50:48;;;;;;;5.72;1.65;;;18.20;1.00;;;;;;5119882;28;20046;-59
2023/09/13 11:53:20;;;;;;;8.00;1.65;;;18.30;1.00;;;;;;5079679;28;20056;-58
2023/09/13 11:55:55;;;;;;;7.93;1.55;;;18.60;1.00;;;;;;5112245;28;20085;-57
2023/09/13 11:58:38;;;;;;;8.77;1.35;;;18.80;1.00;;;;;;5119506;28;20475;-58
2023/09/13 12:01:07;;;;;;;4.72;1.10;;;19.20;1.00;;;;;;5121438;28;20047;-57
2023/09/13 12:03:43;;;;;;;6.25;1.20;;;19.30;1.00;;;;;;5120288;28;20047;-57
2023/09/13 12:06:09;;;;;;;9.65;1.40;;;19.30;1.00;;;;;;5120512;28;20067;-58
2023/09/13 12:08:39;;;;;;;8.18;1.50;;;19.30;1.00;;;;;;5120514;28;20051;-57
2023/09/13 12:11:06;;;;;;;7.07;1.65;;;18.90;1.00;;;;;;5119734;28;20042;-56
2023/09/13 12:13:54;;;;;;;9.95;1.60;;;18.70;1.00;;;;;;5120357;27;20071;-58
2023/09/13 12:16:20;;;;;;;7.75;1.50;;;18.40;1.00;;;;;;5120129;28;20055;-57
2023/09/13 12:18:45;;;;;;;7.68;2.42;;;18.00;1.00;;;;;;5119957;28;20084;-58
2023/09/13 12:21:12;;;;;;;7.40;1.42;;;17.80;1.00;;;;;;5120303;28;20039;-57
2023/09/13 12:23:43;;;;;;;10.07;1.60;;;17.60;5.10;;;;;;5118628;28;20833;-57
2023/09/13 12:26:11;;;;;;;9.50;1.50;;;17.30;12.30;;;;;;5120964;27;20081;-57
2023/09/13 12:28:39;;;;;;;9.82;1.80;;;17.40;18.60;;;;;;5119267;28;20122;-57
2023/09/13 12:31:09;;;;;;;5.70;1.50;;;17.20;23.10;;;;;;5120669;28;20406;-57
2023/09/13 12:33:53;;;;;;;14.55;2.03;;;17.20;27.20;;;;;;5114749;28;20047;-57
2023/09/13 12:36:20;;;;;;;6.82;1.60;;;17.10;31.10;;;;;;5104628;28;20039;-56
2023/09/13 12:38:46;;;;;;;8.60;1.70;;;17.00;31.40;;;;;;5099745;28;20594;-58
2023/09/13 12:41:20;;;;;;;7.82;1.75;;;17.00;39.40;;;;;;5098882;28;20044;-58
2023/09/13 12:43:50;;;;;;;8.88;1.50;;;16.90;43.00;;;;;;5107547;28;20055;-58
2023/09/13 12:46:21;;;;;;;11.95;2.35;;;17.00;50.80;;;;;;5098824;28;20067;-57
2023/09/13 12:48:49;;;;;;;9.15;1.50;;;17.00;37.50;;;;;;5099103;28;20052;-57